sensor_id;sensor_type;location;lat;lon;timestamp;pressure;altitude;pressure_sealevel;temperature;humidity
7018;BME280;3549;42.162;24.726;2022-07-01T00:00:09;98613.94;;;20.07;71.79
7018;BME280;3549;42.162;24.726;2022-07-01T00:02:34;98976.88;;;22.30;72.46
7018;BME280;3549;42.162;24.726;2022-07-01T00:05:00;99044.34;;;22.74;72.68
7018;BME280;3549;42.162;24.726;2022-07-01T00:07:25;98691.50;;;20.71;73.00
7018;BME280;3549;42.162;24.726;2022-07-01T00:09:51;98729.03;;;20.91;72.64
7018;BME280;3549;42.162;24.726;2022-07-01T00:12:16;99170.31;;;23.27;74.57
7018;BME280;3549;42.162;24.726;2022-07-01T00:14:42;99090.91;;;22.68;75.33
7018;BME280;3549;42.162;24.726;2022-07-01T00:17:08;99165.44;;;23.00;75.53
7018;BME280;3549;42.162;24.726;2022-07-01T00:19:33;99110.19;;;22.23;77.76
7018;BME280;3549;42.162;24.726;2022-07-01T00:21:58;98858.56;;;20.92;77.44
7018;BME280;3549;42.162;24.726;2022-07-01T00:24:24;98702.22;;;19.98;77.36
7018;BME280;3549;42.162;24.726;2022-07-01T00:26:50;98633.09;;;19.51;76.99
7018;BME280;3549;42.162;24.726;2022-07-01T00:29:16;98952.56;;;21.55;75.60
7018;BME280;3549;42.162;24.726;2022-07-01T00:31:41;98794.53;;;20.45;76.06
7018;BME280;3549;42.162;24.726;2022-07-01T00:34:07;99174.31;;;22.70;75.75
7018;BME280;3549;42.162;24.726;2022-07-01T00:36:32;99029.63;;;21.93;76.14
7018;BME280;3549;42.162;24.726;2022-07-01T00:38:58;98855.22;;;20.81;76.67
7018;BME280;3549;42.162;24.726;2022-07-01T00:41:23;98858.72;;;20.71;76.23
7018;BME280;3549;42.162;24.726;2022-07-01T00:43:49;99019.38;;;21.79;76.77
7018;BME280;3549;42.162;24.726;2022-07-01T00:46:14;99076.75;;;22.13;76.58
7018;BME280;3549;42.162;24.726;2022-07-01T00:48:40;98791.94;;;20.46;76.60
7018;BME280;3549;42.162;24.726;2022-07-01T00:51:06;98771.50;;;20.28;76.58
7018;BME280;3549;42.162;24.726;2022-07-01T00:53:31;98684.31;;;19.86;76.18
7018;BME280;3549;42.162;24.726;2022-07-01T00:55:57;99033.19;;;21.70;77.30
7018;BME280;3549;42.162;24.726;2022-07-01T00:58:26;99145.28;;;22.44;77.97
7018;BME280;3549;42.162;24.726;2022-07-01T01:00:52;98848.47;;;20.62;78.04
7018;BME280;3549;42.162;24.726;2022-07-01T01:03:17;99139.25;;;22.42;78.21
7018;BME280;3549;42.162;24.726;2022-07-01T01:05:42;98636.56;;;19.36;78.58
7018;BME280;3549;42.162;24.726;2022-07-01T01:08:08;98688.50;;;19.97;77.47
7018;BME280;3549;42.162;24.726;2022-07-01T01:10:36;99140.84;;;22.58;77.69
7018;BME280;3549;42.162;24.726;2022-07-01T01:13:02;99137.50;;;22.46;78.71
7018;BME280;3549;42.162;24.726;2022-07-01T01:15:30;99140.84;;;22.60;78.02
7018;BME280;3549;42.162;24.726;2022-07-01T01:17:55;99130.66;;;22.43;78.23
7018;BME280;3549;42.162;24.726;2022-07-01T01:20:21;98762.97;;;20.11;79.64
7018;BME280;3549;42.162;24.726;2022-07-01T01:22:46;99021.25;;;21.59;79.88
7018;BME280;3549;42.162;24.726;2022-07-01T01:25:13;98774.94;;;20.21;79.43
7018;BME280;3549;42.162;24.726;2022-07-01T01:27:39;99010.91;;;21.66;79.88
7018;BME280;3549;42.162;24.726;2022-07-01T01:30:06;99032.31;;;21.74;80.33
7018;BME280;3549;42.162;24.726;2022-07-01T01:32:32;98670.72;;;19.60;80.03
7018;BME280;3549;42.162;24.726;2022-07-01T01:34:58;98529.88;;;18.67;80.51
7018;BME280;3549;42.162;24.726;2022-07-01T01:37:23;98675.06;;;19.39;81.42
7018;BME280;3549;42.162;24.726;2022-07-01T01:39:49;98889.59;;;20.68;82.31
7018;BME280;3549;42.162;24.726;2022-07-01T01:42:14;98828.88;;;20.30;82.37
7018;BME280;3549;42.162;24.726;2022-07-01T01:44:40;98851.13;;;20.45;82.06
7018;BME280;3549;42.162;24.726;2022-07-01T01:47:05;99028.16;;;21.55;82.58
7018;BME280;3549;42.162;24.726;2022-07-01T01:49:31;98838.19;;;20.58;82.04
7018;BME280;3549;42.162;24.726;2022-07-01T01:51:58;98825.44;;;20.34;83.05
7018;BME280;3549;42.162;24.726;2022-07-01T01:54:24;98661.41;;;19.22;83.65
7018;BME280;3549;42.162;24.726;2022-07-01T01:56:50;98927.41;;;20.41;86.27
7018;BME280;3549;42.162;24.726;2022-07-01T01:59:15;98674.28;;;18.71;86.91
7018;BME280;3549;42.162;24.726;2022-07-01T02:01:41;99022.38;;;21.08;86.35
7018;BME280;3549;42.162;24.726;2022-07-01T02:04:06;99027.53;;;21.09;85.94
7018;BME280;3549;42.162;24.726;2022-07-01T02:06:31;98766.56;;;19.68;85.55
7018;BME280;3549;42.162;24.726;2022-07-01T02:08:57;98897.47;;;20.30;86.09
7018;BME280;3549;42.162;24.726;2022-07-01T02:11:22;99098.56;;;21.48;85.85
7018;BME280;3549;42.162;24.726;2022-07-01T02:13:48;98668.22;;;19.23;83.95
7018;BME280;3549;42.162;24.726;2022-07-01T02:16:13;98811.84;;;19.99;85.09
7018;BME280;3549;42.162;24.726;2022-07-01T02:18:39;99157.59;;;22.01;84.16
7018;BME280;3549;42.162;24.726;2022-07-01T02:21:04;98571.75;;;18.32;84.36
7018;BME280;3549;42.162;24.726;2022-07-01T02:23:29;98829.03;;;19.88;84.90
7018;BME280;3549;42.162;24.726;2022-07-01T02:25:55;98800.84;;;19.52;86.19
7018;BME280;3549;42.162;24.726;2022-07-01T02:28:21;99039.63;;;20.77;86.10
7018;BME280;3549;42.162;24.726;2022-07-01T02:30:46;98913.81;;;19.91;85.97
7018;BME280;3549;42.162;24.726;2022-07-01T02:33:11;98736.69;;;18.82;85.91
7018;BME280;3549;42.162;24.726;2022-07-01T02:35:38;99090.22;;;20.77;87.24
7018;BME280;3549;42.162;24.726;2022-07-01T02:38:04;98944.63;;;19.55;89.68
7018;BME280;3549;42.162;24.726;2022-07-01T02:40:30;98736.50;;;17.94;91.63
7018;BME280;3549;42.162;24.726;2022-07-01T02:42:56;99096.25;;;20.33;91.54
7018;BME280;3549;42.162;24.726;2022-07-01T02:45:21;99169.09;;;20.88;90.92
7018;BME280;3549;42.162;24.726;2022-07-01T02:47:47;98982.31;;;19.71;90.03
7018;BME280;3549;42.162;24.726;2022-07-01T02:50:13;98900.09;;;19.42;89.39
7018;BME280;3549;42.162;24.726;2022-07-01T02:52:41;99177.69;;;21.10;88.83
7018;BME280;3549;42.162;24.726;2022-07-01T02:55:11;98840.97;;;18.77;90.36
7018;BME280;3549;42.162;24.726;2022-07-01T02:57:37;98615.00;;;17.23;92.14
7018;BME280;3549;42.162;24.726;2022-07-01T03:00:04;98758.53;;;17.59;95.64
7018;BME280;3549;42.162;24.726;2022-07-01T03:02:31;98918.69;;;18.52;96.14
7018;BME280;3549;42.162;24.726;2022-07-01T03:04:57;99066.22;;;19.72;95.34
7018;BME280;3549;42.162;24.726;2022-07-01T03:07:22;98688.53;;;17.58;93.89
7018;BME280;3549;42.162;24.726;2022-07-01T03:09:48;99188.88;;;20.51;94.06
7018;BME280;3549;42.162;24.726;2022-07-01T03:12:14;99182.84;;;20.40;94.39
7018;BME280;3549;42.162;24.726;2022-07-01T03:14:57;99203.44;;;20.65;93.96
7018;BME280;3549;42.162;24.726;2022-07-01T03:17:26;99206.03;;;20.60;93.30
7018;BME280;3549;42.162;24.726;2022-07-01T03:19:53;98971.09;;;19.25;92.75
7018;BME280;3549;42.162;24.726;2022-07-01T03:22:22;99208.56;;;20.55;93.38
7018;BME280;3549;42.162;24.726;2022-07-01T03:24:49;99138.22;;;20.07;93.57
7018;BME280;3549;42.162;24.726;2022-07-01T03:27:16;99174.19;;;20.11;95.50
7018;BME280;3549;42.162;24.726;2022-07-01T03:29:41;98965.81;;;18.81;95.98
7018;BME280;3549;42.162;24.726;2022-07-01T03:32:08;99024.03;;;18.97;97.15
7018;BME280;3549;42.162;24.726;2022-07-01T03:34:43;99050.63;;;19.19;96.99
7018;BME280;3549;42.162;24.726;2022-07-01T03:37:11;98698.56;;;17.21;95.38
7018;BME280;3549;42.162;24.726;2022-07-01T03:39:37;98873.31;;;18.37;95.02
7018;BME280;3549;42.162;24.726;2022-07-01T03:42:04;99131.34;;;20.04;95.19
7018;BME280;3549;42.162;24.726;2022-07-01T03:44:30;99206.84;;;20.64;93.95
7018;BME280;3549;42.162;24.726;2022-07-01T03:46:56;98774.22;;;18.39;91.79
7018;BME280;3549;42.162;24.726;2022-07-01T03:49:22;98788.00;;;18.85;89.92
7018;BME280;3549;42.162;24.726;2022-07-01T03:51:48;98764.91;;;18.82;88.19
7018;BME280;3549;42.162;24.726;2022-07-01T03:54:14;99217.06;;;21.57;87.50
7018;BME280;3549;42.162;24.726;2022-07-01T03:57:04;99027.69;;;20.56;86.47
7018;BME280;3549;42.162;24.726;2022-07-01T03:59:32;99209.28;;;21.69;86.52
7018;BME280;3549;42.162;24.726;2022-07-01T04:01:58;99112.47;;;21.17;86.12
7018;BME280;3549;42.162;24.726;2022-07-01T04:04:24;98948.84;;;20.40;84.67
7018;BME280;3549;42.162;24.726;2022-07-01T04:06:51;98944.56;;;20.42;84.19
7018;BME280;3549;42.162;24.726;2022-07-01T04:09:18;99205.81;;;21.80;84.32
7018;BME280;3549;42.162;24.726;2022-07-01T04:11:45;98944.66;;;19.64;86.73
7018;BME280;3549;42.162;24.726;2022-07-01T04:14:11;99097.09;;;20.78;86.86
7018;BME280;3549;42.162;24.726;2022-07-01T04:16:37;99207.63;;;21.53;85.57
7018;BME280;3549;42.162;24.726;2022-07-01T04:19:03;98785.44;;;19.12;83.56
7018;BME280;3549;42.162;24.726;2022-07-01T04:21:29;98812.84;;;19.47;82.23
7018;BME280;3549;42.162;24.726;2022-07-01T04:24:12;99046.47;;;20.77;82.65
7018;BME280;3549;42.162;24.726;2022-07-01T04:26:39;99116.69;;;21.33;81.72
7018;BME280;3549;42.162;24.726;2022-07-01T04:29:05;99208.28;;;22.04;81.12
7018;BME280;3549;42.162;24.726;2022-07-01T04:31:31;98773.44;;;19.35;81.01
7018;BME280;3549;42.162;24.726;2022-07-01T04:33:56;99194.66;;;21.77;81.93
7018;BME280;3549;42.162;24.726;2022-07-01T04:36:22;98894.03;;;20.11;81.28
7018;BME280;3549;42.162;24.726;2022-07-01T04:38:47;99007.03;;;20.72;81.53
7018;BME280;3549;42.162;24.726;2022-07-01T04:41:13;98917.13;;;20.44;81.25
7018;BME280;3549;42.162;24.726;2022-07-01T04:43:57;99096.91;;;21.44;82.00
7018;BME280;3549;42.162;24.726;2022-07-01T04:46:22;98972.69;;;20.83;81.93
7018;BME280;3549;42.162;24.726;2022-07-01T04:48:48;99119.94;;;21.71;83.37
7018;BME280;3549;42.162;24.726;2022-07-01T04:51:13;99218.47;;;22.28;83.83
7018;BME280;3549;42.162;24.726;2022-07-01T04:53:39;99154.97;;;22.09;83.78
7018;BME280;3549;42.162;24.726;2022-07-01T04:56:04;99214.91;;;22.49;84.57
7018;BME280;3549;42.162;24.726;2022-07-01T04:58:29;98836.63;;;20.21;84.14
7018;BME280;3549;42.162;24.726;2022-07-01T05:00:55;98930.59;;;20.96;83.31
7018;BME280;3549;42.162;24.726;2022-07-01T05:03:20;98930.47;;;21.21;81.05
7018;BME280;3549;42.162;24.726;2022-07-01T05:05:46;99165.53;;;22.89;78.41
7018;BME280;3549;42.162;24.726;2022-07-01T05:08:11;98875.31;;;21.53;76.38
7018;BME280;3549;42.162;24.726;2022-07-01T05:10:37;99202.53;;;23.75;73.94
7018;BME280;3549;42.162;24.726;2022-07-01T05:13:03;98914.84;;;22.39;72.84
7018;BME280;3549;42.162;24.726;2022-07-01T05:15:28;99050.28;;;23.54;71.48
7018;BME280;3549;42.162;24.726;2022-07-01T05:17:54;99073.59;;;23.51;71.08
7018;BME280;3549;42.162;24.726;2022-07-01T05:20:38;99198.28;;;24.34;71.17
7018;BME280;3549;42.162;24.726;2022-07-01T05:23:22;99127.06;;;24.08;70.00
7018;BME280;3549;42.162;24.726;2022-07-01T05:25:47;98893.78;;;22.77;69.93
7018;BME280;3549;42.162;24.726;2022-07-01T05:28:13;98926.03;;;22.41;69.44
7018;BME280;3549;42.162;24.726;2022-07-01T05:30:38;98919.63;;;22.74;68.49
7018;BME280;3549;42.162;24.726;2022-07-01T05:33:04;98875.97;;;22.53;66.61
7018;BME280;3549;42.162;24.726;2022-07-01T05:35:29;99188.66;;;24.43;65.67
7018;BME280;3549;42.162;24.726;2022-07-01T05:37:56;99223.31;;;24.90;65.17
7018;BME280;3549;42.162;24.726;2022-07-01T05:40:21;98953.47;;;23.18;65.26
7018;BME280;3549;42.162;24.726;2022-07-01T05:42:47;98774.63;;;22.46;64.91
7018;BME280;3549;42.162;24.726;2022-07-01T05:45:12;98921.19;;;23.48;64.40
7018;BME280;3549;42.162;24.726;2022-07-01T05:47:37;98908.31;;;23.45;64.06
7018;BME280;3549;42.162;24.726;2022-07-01T05:50:03;98814.47;;;23.43;61.29
7018;BME280;3549;42.162;24.726;2022-07-01T05:52:29;99193.16;;;26.19;59.87
7018;BME280;3549;42.162;24.726;2022-07-01T05:54:54;99023.38;;;25.15;59.00
7018;BME280;3549;42.162;24.726;2022-07-01T05:57:20;98887.63;;;24.41;58.52
7018;BME280;3549;42.162;24.726;2022-07-01T05:59:45;98992.88;;;24.41;59.21
7018;BME280;3549;42.162;24.726;2022-07-01T06:02:11;99211.75;;;26.39;58.15
7018;BME280;3549;42.162;24.726;2022-07-01T06:04:36;99164.16;;;26.37;56.93
7018;BME280;3549;42.162;24.726;2022-07-01T06:07:02;99117.03;;;26.54;55.19
7018;BME280;3549;42.162;24.726;2022-07-01T06:09:27;99065.38;;;26.43;54.94
7018;BME280;3549;42.162;24.726;2022-07-01T06:11:53;99200.31;;;27.49;53.70
7018;BME280;3549;42.162;24.726;2022-07-01T06:14:18;99187.59;;;27.69;52.40
7018;BME280;3549;42.162;24.726;2022-07-01T06:16:43;99118.84;;;27.48;51.61
7018;BME280;3549;42.162;24.726;2022-07-01T06:19:09;98876.22;;;25.30;51.73
7018;BME280;3549;42.162;24.726;2022-07-01T06:21:34;99002.84;;;25.83;52.79
7018;BME280;3549;42.162;24.726;2022-07-01T06:24:00;99212.94;;;27.63;52.08
7018;BME280;3549;42.162;24.726;2022-07-01T06:26:25;99218.03;;;27.33;52.36
7018;BME280;3549;42.162;24.726;2022-07-01T06:28:51;99217.59;;;27.18;52.48
7018;BME280;3549;42.162;24.726;2022-07-01T06:31:17;99068.69;;;26.83;52.53
7018;BME280;3549;42.162;24.726;2022-07-01T06:33:42;99083.06;;;26.95;51.18
7018;BME280;3549;42.162;24.726;2022-07-01T06:36:08;98928.84;;;26.36;50.64
7018;BME280;3549;42.162;24.726;2022-07-01T06:38:33;98908.91;;;26.04;50.51
7018;BME280;3549;42.162;24.726;2022-07-01T06:40:59;98845.84;;;25.35;51.83
7018;BME280;3549;42.162;24.726;2022-07-01T06:43:43;99221.91;;;28.13;50.37
7018;BME280;3549;42.162;24.726;2022-07-01T06:46:08;99215.63;;;28.47;48.75
7018;BME280;3549;42.162;24.726;2022-07-01T06:48:34;99091.94;;;27.19;49.87
7018;BME280;3549;42.162;24.726;2022-07-01T06:51:01;99148.88;;;27.88;49.01
7018;BME280;3549;42.162;24.726;2022-07-01T06:53:27;99220.81;;;28.47;48.59
7018;BME280;3549;42.162;24.726;2022-07-01T06:55:52;99195.69;;;27.89;49.58
7018;BME280;3549;42.162;24.726;2022-07-01T06:58:17;98851.13;;;25.30;50.20
7018;BME280;3549;42.162;24.726;2022-07-01T07:00:43;99216.63;;;27.85;49.52
7018;BME280;3549;42.162;24.726;2022-07-01T07:03:08;99089.13;;;27.85;47.25
7018;BME280;3549;42.162;24.726;2022-07-01T07:05:34;98999.06;;;27.53;46.83
7018;BME280;3549;42.162;24.726;2022-07-01T07:07:59;98893.81;;;26.51;47.44
7018;BME280;3549;42.162;24.726;2022-07-01T07:10:25;99084.56;;;27.64;48.11
7018;BME280;3549;42.162;24.726;2022-07-01T07:12:50;99180.63;;;28.28;47.46
7018;BME280;3549;42.162;24.726;2022-07-01T07:15:15;99201.56;;;28.51;46.33
7018;BME280;3549;42.162;24.726;2022-07-01T07:17:42;99207.78;;;28.47;46.44
7018;BME280;3549;42.162;24.726;2022-07-01T07:20:08;98795.75;;;25.99;46.27
7018;BME280;3549;42.162;24.726;2022-07-01T07:22:34;99031.91;;;28.37;44.42
7018;BME280;3549;42.162;24.726;2022-07-01T07:25:00;99088.38;;;29.11;43.63
7018;BME280;3549;42.162;24.726;2022-07-01T07:27:25;98896.22;;;27.15;45.21
7018;BME280;3549;42.162;24.726;2022-07-01T07:29:51;99089.16;;;28.13;46.24
7018;BME280;3549;42.162;24.726;2022-07-01T07:32:16;98765.22;;;26.39;46.70
7018;BME280;3549;42.162;24.726;2022-07-01T07:34:43;99202.34;;;29.57;45.06
7018;BME280;3549;42.162;24.726;2022-07-01T07:37:08;99111.19;;;28.80;44.55
7018;BME280;3549;42.162;24.726;2022-07-01T07:39:34;99137.47;;;29.24;43.48
7018;BME280;3549;42.162;24.726;2022-07-01T07:41:59;98758.94;;;27.52;42.49
7018;BME280;3549;42.162;24.726;2022-07-01T07:44:25;99151.47;;;29.92;41.89
7018;BME280;3549;42.162;24.726;2022-07-01T07:46:50;99219.56;;;30.75;41.16
7018;BME280;3549;42.162;24.726;2022-07-01T07:49:16;99106.38;;;29.65;41.66
7018;BME280;3549;42.162;24.726;2022-07-01T07:51:41;99069.63;;;29.48;41.56
7018;BME280;3549;42.162;24.726;2022-07-01T07:54:07;99213.66;;;30.27;42.03
7018;BME280;3549;42.162;24.726;2022-07-01T07:56:32;99054.44;;;28.88;42.15
7018;BME280;3549;42.162;24.726;2022-07-01T07:58:58;99174.56;;;30.02;42.51
7018;BME280;3549;42.162;24.726;2022-07-01T08:01:25;99173.59;;;30.26;40.13
7018;BME280;3549;42.162;24.726;2022-07-01T08:03:50;99148.84;;;29.92;40.10
7018;BME280;3549;42.162;24.726;2022-07-01T08:06:16;98991.53;;;29.65;39.80
7018;BME280;3549;42.162;24.726;2022-07-01T08:08:41;98884.25;;;29.07;40.65
7018;BME280;3549;42.162;24.726;2022-07-01T08:11:07;98993.69;;;30.19;40.02
7018;BME280;3549;42.162;24.726;2022-07-01T08:13:33;99209.69;;;32.01;38.87
7018;BME280;3549;42.162;24.726;2022-07-01T08:15:59;99220.28;;;31.80;38.61
7018;BME280;3549;42.162;24.726;2022-07-01T08:18:25;99223.03;;;31.18;38.75
7018;BME280;3549;42.162;24.726;2022-07-01T08:20:51;99219.44;;;31.79;37.87
7018;BME280;3549;42.162;24.726;2022-07-01T08:23:20;99061.78;;;30.56;38.27
7018;BME280;3549;42.162;24.726;2022-07-01T08:25:46;99006.84;;;30.96;37.18
7018;BME280;3549;42.162;24.726;2022-07-01T08:28:12;99022.50;;;30.58;37.30
7018;BME280;3549;42.162;24.726;2022-07-01T08:30:37;99174.31;;;30.95;37.17
7018;BME280;3549;42.162;24.726;2022-07-01T08:33:04;99041.09;;;30.90;36.75
7018;BME280;3549;42.162;24.726;2022-07-01T08:35:30;99208.72;;;32.58;37.09
7018;BME280;3549;42.162;24.726;2022-07-01T08:37:55;98895.97;;;30.82;36.87
7018;BME280;3549;42.162;24.726;2022-07-01T08:40:31;99089.03;;;31.50;37.86
7018;BME280;3549;42.162;24.726;2022-07-01T08:42:57;99131.75;;;32.06;38.44
7018;BME280;3549;42.162;24.726;2022-07-01T08:45:29;99206.91;;;32.95;37.56
7018;BME280;3549;42.162;24.726;2022-07-01T08:47:56;98950.00;;;31.56;36.42
7018;BME280;3549;42.162;24.726;2022-07-01T08:50:36;98961.94;;;30.28;38.42
7018;BME280;3549;42.162;24.726;2022-07-01T08:53:03;99207.44;;;32.67;37.86
7018;BME280;3549;42.162;24.726;2022-07-01T08:55:29;99201.44;;;33.34;36.43
7018;BME280;3549;42.162;24.726;2022-07-01T08:57:55;99133.22;;;33.16;35.63
7018;BME280;3549;42.162;24.726;2022-07-01T09:00:21;99222.88;;;33.59;35.65
7018;BME280;3549;42.162;24.726;2022-07-01T09:02:58;99179.97;;;33.43;35.59
7018;BME280;3549;42.162;24.726;2022-07-01T09:05:25;98936.31;;;31.85;35.26
7018;BME280;3549;42.162;24.726;2022-07-01T09:08:03;99165.13;;;33.59;35.54
7018;BME280;3549;42.162;24.726;2022-07-01T09:10:30;99195.63;;;33.77;36.01
7018;BME280;3549;42.162;24.726;2022-07-01T09:13:11;99052.66;;;33.01;35.50
7018;BME280;3549;42.162;24.726;2022-07-01T09:15:38;99198.94;;;33.80;35.21
7018;BME280;3549;42.162;24.726;2022-07-01T09:20:35;99134.56;;;32.91;35.15
7018;BME280;3549;42.162;24.726;2022-07-01T09:23:06;99010.97;;;31.94;36.15
7018;BME280;3549;42.162;24.726;2022-07-01T09:25:39;98946.81;;;31.85;35.97
7018;BME280;3549;42.162;24.726;2022-07-01T09:28:13;99189.72;;;33.89;34.39
7018;BME280;3549;42.162;24.726;2022-07-01T09:30:41;99191.78;;;34.15;35.12
7018;BME280;3549;42.162;24.726;2022-07-01T09:33:12;98929.59;;;32.81;34.47
7018;BME280;3549;42.162;24.726;2022-07-01T09:35:38;99189.59;;;34.53;34.62
7018;BME280;3549;42.162;24.726;2022-07-01T09:38:04;98959.19;;;33.32;34.86
7018;BME280;3549;42.162;24.726;2022-07-01T09:40:56;99188.47;;;35.03;34.69
7018;BME280;3549;42.162;24.726;2022-07-01T09:43:26;99181.75;;;34.06;35.22
7018;BME280;3549;42.162;24.726;2022-07-01T09:46:02;99045.41;;;33.86;34.21
7018;BME280;3549;42.162;24.726;2022-07-01T09:48:48;98825.28;;;32.55;34.44
7018;BME280;3549;42.162;24.726;2022-07-01T09:51:15;98785.25;;;32.03;35.00
7018;BME280;3549;42.162;24.726;2022-07-01T09:53:42;98869.28;;;32.48;35.61
7018;BME280;3549;42.162;24.726;2022-07-01T09:56:08;99203.38;;;34.42;34.91
7018;BME280;3549;42.162;24.726;2022-07-01T09:58:34;98905.81;;;33.00;35.10
7018;BME280;3549;42.162;24.726;2022-07-01T10:01:03;99177.75;;;34.46;34.98
7018;BME280;3549;42.162;24.726;2022-07-01T10:03:31;98960.84;;;33.01;35.72
7018;BME280;3549;42.162;24.726;2022-07-01T10:06:37;99177.00;;;34.60;35.31
7018;BME280;3549;42.162;24.726;2022-07-01T10:09:21;99167.41;;;35.03;35.10
7018;BME280;3549;42.162;24.726;2022-07-01T10:14:17;98948.25;;;33.84;33.81
7018;BME280;3549;42.162;24.726;2022-07-01T10:16:47;98905.22;;;32.95;34.30
7018;BME280;3549;42.162;24.726;2022-07-01T10:21:52;99159.69;;;35.29;34.37
7018;BME280;3549;42.162;24.726;2022-07-01T10:24:20;98991.19;;;34.73;32.95
7018;BME280;3549;42.162;24.726;2022-07-01T10:26:46;99009.16;;;35.09;32.86
7018;BME280;3549;42.162;24.726;2022-07-01T10:29:35;99152.81;;;35.83;32.40
7018;BME280;3549;42.162;24.726;2022-07-01T10:32:09;99120.31;;;35.56;32.86
7018;BME280;3549;42.162;24.726;2022-07-01T10:34:41;98897.41;;;34.15;32.19
7018;BME280;3549;42.162;24.726;2022-07-01T10:37:08;98832.94;;;33.66;31.28
7018;BME280;3549;42.162;24.726;2022-07-01T10:39:57;99141.59;;;35.94;29.27
7018;BME280;3549;42.162;24.726;2022-07-01T10:42:58;99091.34;;;35.83;30.25
7018;BME280;3549;42.162;24.726;2022-07-01T10:45:24;98787.97;;;34.00;30.63
7018;BME280;3549;42.162;24.726;2022-07-01T10:48:22;98946.16;;;35.06;28.25
7018;BME280;3549;42.162;24.726;2022-07-01T10:50:49;98806.63;;;34.66;28.31
7018;BME280;3549;42.162;24.726;2022-07-01T10:53:14;99107.41;;;36.46;28.05
7018;BME280;3549;42.162;24.726;2022-07-01T10:55:44;98674.50;;;33.94;28.43
7018;BME280;3549;42.162;24.726;2022-07-01T10:58:10;99048.50;;;36.20;29.05
7018;BME280;3549;42.162;24.726;2022-07-01T11:00:40;99123.03;;;36.49;27.90
7018;BME280;3549;42.162;24.726;2022-07-01T11:03:11;98758.94;;;34.44;28.28
7018;BME280;3549;42.162;24.726;2022-07-01T11:05:37;98699.97;;;34.34;27.73
7018;BME280;3549;42.162;24.726;2022-07-01T11:08:07;98615.81;;;33.52;27.04
7018;BME280;3549;42.162;24.726;2022-07-01T11:10:32;98658.38;;;34.40;26.42
7018;BME280;3549;42.162;24.726;2022-07-01T11:13:02;98859.16;;;35.87;25.77
7018;BME280;3549;42.162;24.726;2022-07-01T11:15:30;98754.91;;;35.71;25.46
7018;BME280;3549;42.162;24.726;2022-07-01T11:17:57;98998.84;;;37.15;25.43
7018;BME280;3549;42.162;24.726;2022-07-01T11:20:28;98674.53;;;35.01;25.20
7018;BME280;3549;42.162;24.726;2022-07-01T11:22:54;98736.47;;;35.06;25.52
7018;BME280;3549;42.162;24.726;2022-07-01T11:25:20;98897.69;;;36.15;26.61
7018;BME280;3549;42.162;24.726;2022-07-01T11:27:48;98987.34;;;36.91;27.01
7018;BME280;3549;42.162;24.726;2022-07-01T11:30:15;99118.22;;;37.81;26.83
7018;BME280;3549;42.162;24.726;2022-07-01T11:32:43;98969.63;;;36.80;27.11
7018;BME280;3549;42.162;24.726;2022-07-01T11:35:29;98705.47;;;35.24;27.41
7018;BME280;3549;42.162;24.726;2022-07-01T11:38:21;99102.94;;;37.98;25.66
7018;BME280;3549;42.162;24.726;2022-07-01T11:41:08;98695.88;;;35.86;23.92
7018;BME280;3549;42.162;24.726;2022-07-01T11:43:36;98765.72;;;37.02;24.41
7018;BME280;3549;42.162;24.726;2022-07-01T11:46:05;98785.63;;;37.75;23.60
7018;BME280;3549;42.162;24.726;2022-07-01T11:48:33;99099.66;;;39.67;23.14
7018;BME280;3549;42.162;24.726;2022-07-01T11:51:01;99029.44;;;38.94;23.56
7018;BME280;3549;42.162;24.726;2022-07-01T11:53:27;98785.72;;;37.28;23.36
7018;BME280;3549;42.162;24.726;2022-07-01T11:55:53;98700.50;;;37.37;23.08
7018;BME280;3549;42.162;24.726;2022-07-01T11:58:19;99063.34;;;40.21;22.42
7018;BME280;3549;42.162;24.726;2022-07-01T12:00:44;98681.16;;;38.68;21.48
7018;BME280;3549;42.162;24.726;2022-07-01T12:03:10;98891.97;;;40.89;20.59
7018;BME280;3549;42.162;24.726;2022-07-01T12:05:36;98892.34;;;41.24;20.53
7018;BME280;3549;42.162;24.726;2022-07-01T12:08:03;99029.41;;;42.53;19.64
7018;BME280;3549;42.162;24.726;2022-07-01T12:10:29;99099.63;;;43.36;19.36
7018;BME280;3549;42.162;24.726;2022-07-01T12:12:55;99038.25;;;42.63;19.91
7018;BME280;3549;42.162;24.726;2022-07-01T12:15:20;98999.88;;;42.92;19.42
7018;BME280;3549;42.162;24.726;2022-07-01T12:17:46;99059.19;;;42.19;20.39
7018;BME280;3549;42.162;24.726;2022-07-01T12:20:12;99054.81;;;41.99;20.70
7018;BME280;3549;42.162;24.726;2022-07-01T12:22:37;99023.13;;;42.63;20.65
7018;BME280;3549;42.162;24.726;2022-07-01T12:25:11;99099.91;;;43.61;19.90
7018;BME280;3549;42.162;24.726;2022-07-01T12:27:38;98742.41;;;40.79;20.10
7018;BME280;3549;42.162;24.726;2022-07-01T12:30:09;99107.91;;;43.61;20.86
7018;BME280;3549;42.162;24.726;2022-07-01T12:32:37;99097.47;;;43.94;20.72
7018;BME280;3549;42.162;24.726;2022-07-01T12:35:05;99060.84;;;43.05;20.68
7018;BME280;3549;42.162;24.726;2022-07-01T12:37:54;98898.03;;;42.34;20.65
7018;BME280;3549;42.162;24.726;2022-07-01T12:40:21;98964.34;;;42.18;20.72
7018;BME280;3549;42.162;24.726;2022-07-01T12:42:47;99048.34;;;43.06;20.62
7018;BME280;3549;42.162;24.726;2022-07-01T12:45:14;98952.00;;;42.27;20.92
7018;BME280;3549;42.162;24.726;2022-07-01T12:47:42;98884.19;;;42.58;20.42
7018;BME280;3549;42.162;24.726;2022-07-01T12:50:30;99033.72;;;44.09;20.10
7018;BME280;3549;42.162;24.726;2022-07-01T12:57:58;99072.19;;;44.07;20.33
7018;BME280;3549;42.162;24.726;2022-07-01T13:00:26;98997.63;;;43.25;20.90
7018;BME280;3549;42.162;24.726;2022-07-01T13:02:55;98934.59;;;43.33;20.47
7018;BME280;3549;42.162;24.726;2022-07-01T13:05:21;98894.56;;;43.69;20.06
7018;BME280;3549;42.162;24.726;2022-07-01T13:07:46;99061.00;;;44.38;20.46
7018;BME280;3549;42.162;24.726;2022-07-01T13:10:14;99038.44;;;43.80;20.56
7018;BME280;3549;42.162;24.726;2022-07-01T13:12:40;98661.06;;;41.90;20.79
7018;BME280;3549;42.162;24.726;2022-07-01T13:15:06;98842.16;;;43.07;20.73
7018;BME280;3549;42.162;24.726;2022-07-01T13:17:31;98786.28;;;42.70;20.26
7018;BME280;3549;42.162;24.726;2022-07-01T13:19:57;98783.94;;;42.40;20.04
7018;BME280;3549;42.162;24.726;2022-07-01T13:22:23;99060.22;;;44.46;19.80
7018;BME280;3549;42.162;24.726;2022-07-01T13:24:49;98731.25;;;43.57;19.48